Racecast

Adelle Robinson

Le Moyne C (NY) (NY) · Fr · SECMI D1MONROE · Compare head to head

Athlete rating 79.2 2025 XC season
Best race 127.0 XC
Races 105
Seasons 9 2018 — 2026

RankedNation #14667·NCAA DII #3671·EAST #2754·NEC #176·NY #920·Team #25 ?

Rating scale ?

Cross Country

2025 XC 79.7

Le Moyne C (NY) (NY) · Grade Fr

Date Meet Event Result Place Rating Difficulty PR/SR Flags
2025-08-30 Le Moyne College 4000m 21:27.1 44th · 13th on team 79.7 -0.050 ★PR ★CR SR CSR RSR

2021 XC 102.1

Temperance Bedford (MI) · Grade 9

Date Meet Event Result Place Rating Difficulty PR/SR Flags
2021-09-28 Munson Park 5000m +0.054 ★CR CSR
2021-09-24 Ella Sharp Park OFFICIAL 5000m 25:25.6 73rd · 5th on team 109.2 +0.038 ★CR CSR RSR
2021-09-18 Ottawa Park Golf Course 5000m 24:29.6 27th · 5th on team 104.6 -0.030 ★PR ★CR SR CSR
2021-09-14 Hudson Mills Metropark - OFFICIAL 5000m 25:53.2 88th · 3rd on team 106.1 +0.036 PR ★CR SR CSR RSR
2021-09-11 Hedges Boyer Park 5000m 26:00.1 110th · 4th on team 98.3 -0.036 ★CR CSR RSR
2021-09-04 BGSU 5000m 25:54.4 146th · 7th on team 97.8 -0.038 PR ★CR SR CSR RSR
2021-08-28 Defiance High School 5000m 27:03.9 98th · 12th on team 96.8 -0.018 PR ★CR SR CSR RSR

2020 XC 120.6

Temperance Bedford (MI) · Grade 8

Date Meet Event Result Place Rating Difficulty PR/SR Flags
2020-10-14 Indian Creek OFFICIAL 3200m 15:34.7 15th · 8th on team 122.3 +0.038 ★CR SR CSR
2020-10-07 Hudson Mills Metropark - OFFICIAL 3218m 17:52.2 27th · 14th on team 112.7 +0.062 CSR
2020-09-24 Indian Creek OFFICIAL 3200m 15:57 14th · 9th on team 121.9 +0.038 CR SR CSR
2020-09-19 Indian Creek OFFICIAL 3218m 15:19 8th · 7th on team 124.9 +0.038 ★CR SR CSR RSR
2020-09-16 Rolling Hills 3218m 16:53.6 12th · 10th on team 121.2 +0.077 ★CR SR CSR RSR

2019 XC 111.9

Temperance Bedford (MI) · Grade 7

Date Meet Event Result Place Rating Difficulty PR/SR Flags
2019-09-28 Lake Erie Metro Park OFFICIAL 3218m 14:58.8 35th · 2nd on team 127.0 +0.034 ★PR ★CR ★R SR CSR RSR
2019-09-24 Hudson Mills Metropark - OFFICIAL 2414m 14:51.6 29th · 2nd on team 92.2 +0.025 ★PR ★CR SR CSR
2019-09-21 Maumee Bay State Park 3200m 15:15.8 43rd · 2nd on team 117.6 -0.033 ★CR CSR
2019-09-14 Ottawa Park Golf Course 3200m 14:58.5 26th · 6th on team 119.0 -0.037 ★CR SR CSR RSR
2019-09-07 Hedges Boyer Park 2816m 15:24.5 55th · 1st on team 103.9 ★PR ★CR SR CSR RSR

2018 XC 122.5

Temperance Bedford (MI) · Grade 6

Date Meet Event Result Place Rating Difficulty PR/SR Flags
2018-10-13 Munson Park 3200m 14:52.9 32nd · 13th on team 126.7 +0.034 ★PR ★CR R SR CSR RSR
2018-10-10 Saline High School 3200m 15:06.7 11th · 3rd on team 125.6 +0.016 PR ★CR R SR CSR RSR
2018-10-06 Munson Park 3218m 15:49 37th · 12th on team 122.0 +0.034 ★CR CSR
2018-09-29 Lake Erie Metro Park OFFICIAL 3218m 15:26 77th · 14th on team 123.7 +0.034 PR CR R SR CSR RSR
2018-09-25 Hudson Mills Metropark - OFFICIAL 3218m 16:55.7 17th · 8th on team 115.4 +0.062 ★CR CSR
2018-09-12 Tecumseh HS 3218m 15:37.4 22nd · 10th on team 121.5 +0.036 PR ★CR R SR CSR RSR

Track & Field

2026 TF

Le Moyne C (NY) (NY) · Grade Fr

Date Meet Event Result Place Rating Difficulty PR/SR Flags
2026-04-17 University at Buffalo Alumni Invitational javelin DNS -0.033
2026-04-03 Cortland Red Dragon Open javelin 12.90m -0.033
2026-04-03 Meet results → Women's Javelin 12.90m
2026-03-19 Alan Connie Shamrock Invitational 200m 28.12 86th · 2nd on team -0.037 SR
2026-02-15 Meet results → Women's 400 Meters Preliminaries 1:03.02 29th · 1st on team ★PR SR
2026-01-30 John Thomas Terrier Classic 200m 28.5 113th · 3rd on team -0.053
2026-01-30 Harvard Invitational 400m 1:03.48 34th · 1st on team -0.040 SR
2026-01-23 RIT Friday Invitational 400m 1:05.75 15th · 2nd on team -0.038 SR
2026-01-16 Utica Winter Opener 200m 28.41 14th · 2nd on team -0.046 SR
2025-12-06 Cornell Greg Page Relays & Multi 300m 44.99 18th · 1st on team -0.038 ★PR SR

2025 TF

Summer Series Unats (MI) · Grade 12

Date Meet Event Result Place Rating Difficulty PR/SR Flags
2025-07-09 Divine Child Summer Series #3 100m 13.64 8th · 2nd on team -0.034
2025-06-07 3rd Annual MITCA Champions of Champions TF Festival 200m 26.98 5th · 1st on team -0.037 ★PR SR
2025-05-08 SEC-HS Championship (Red) (EQ Approved) 400m 1:00.56 3rd · 1st on team -0.033 ★PR SR
2025-05-02 Nancy Erme Relays 2025 Women 400m 1:01.46 3rd · 1st on team -0.040
2025-04-29 SEC-HS: Lincoln @ Bedford 400m 1:03.1 3rd · 1st on team -0.033
2025-04-29 SEC-HS: Lincoln @ Bedford 100m 13.49 2nd · 2nd on team -0.033 SR
2025-03-20 '25 Lincoln Spring Indoor Classic 400m 1:01.33 3rd · 1st on team -0.035
2025-03-08 MITS/MITCA Indoor TF State Championships 200m 27.17 47th · 1st on team -0.034
2025-02-21 2025 Midwest Showcase - HS Division 200m 27.51 28th · 1st on team -0.035
2025-02-08 LAB Indoor Meet #9 200m 26.99 15th · 1st on team -0.035 PR SR
2025-01-04 LAB Indoor Meet #4 200m 27.64 22nd · 1st on team -0.035
2024-12-27 LAB Holiday Invite 400m 1:00.92 8th · 1st on team -0.035 PR SR
2024-12-21 LAB Indoor Meet #2 200m 27.64 35th · 1st on team -0.035 SR
2024-12-14 LAB Indoor Meet #1 400m 1:01.87 6th · 1st on team -0.035 SR

2024 TF

Summer Series Unats (MI) · Grade 11

Date Meet Event Result Place Rating Difficulty PR/SR Flags
2024-07-24 Summer Meet #5 400m 1:01.83 4th · 1st on team -0.034 PR SR
2024-06-19 Summer Meet #1 100m 13.34 8th · 4th on team -0.034 ★PR SR
2024-06-08 Great Lakes Night of Stars shot DNS -0.041
2024-05-17 MHSAA LP Region 05-1 @ Ypsi Lincoln 200m 27.49 17th · 1st on team -0.032
2024-05-09 SEC-HS: Championship (Red) 400m 1:04.23 8th · 1st on team -0.032
2024-05-09 SEC-HS: Championship (Red) 200m 27.3 5th · 1st on team -0.032 PR SR
2024-05-03 Clay Eagle Invitational 400m 1:03.41 7th · 1st on team -0.039
2024-04-30 SEC-HS: Bedford @ Lincoln 200m 27.64 3rd · 1st on team -0.032 PR SR
2024-04-30 SEC-HS: Bedford @ Lincoln 100m 13.59 2nd · 1st on team -0.032
2024-04-26 Nancy Erme Relays 2024 400m 1:04.79 9th · 1st on team -0.040
2024-04-20 Woodhaven Warrior Classic 400m 1:04.62 2nd · 1st on team -0.029
2024-04-16 SEC-HS: Skyline & Bedford at Dexter 400m 1:04.57 2nd · 1st on team -0.036
2024-04-09 SEC HS: Huron & Saline at Bedford 200m 28.04 1st · 1st on team -0.033
2024-04-09 SEC HS: Huron & Saline at Bedford 100m 13.58 4th · 1st on team -0.033 PR SR
2024-04-05 Whitmer Gold W 2024 200m 27.69 4th · 1st on team -0.040 SR
2024-03-21 '24 SEC Invite 200m 28.08 3rd · 1st on team -0.035
2024-02-17 LAB Indoor Meet #9 200m 27.86 21st · 3rd on team -0.035 SR
2024-02-17 LAB Indoor Meet #9 60m 8.74 54th · 7th on team -0.035
2024-02-10 LAB Indoor Meet #8 200m 28.52 36th · 9th on team -0.035 SR
2024-02-03 AQ MITS #3 60m 8.67 25th · 1st on team -0.033
2024-01-27 LAB Indoor Meet #6 60m 8.72 94th · 19th on team -0.035
2024-01-06 GVSU - MITS #3 400m 1:02.73 12th · 9th on team -0.042 PR SR
2023-12-29 LAB Holiday Invite 60m 8.66 54th · 8th on team -0.035
2023-12-29 LAB Holiday Invite 400m 1:03.39 19th · 2nd on team -0.035
2023-12-16 LAB Indoor Meet #2 60m 8.6 40th · 6th on team -0.035 ★PR SR
2023-12-16 LAB Indoor Meet #2 400m 1:03.25 21st · 3rd on team -0.035 SR

2023 TF

Temperance Bedford (MI) · Grade 10

Date Meet Event Result Place Rating Difficulty PR/SR Flags
2023-04-10 SEC-HS: Pioneer & Dexter @ Bedford 400m 1:04.21 2nd · 1st on team -0.033
2023-03-23 '23 SEC Invite 200m 27.74 2nd · 1st on team -0.035
2023-02-26 MITS Indoor State Championships 200m 27.66 45th · 6th on team -0.035 PR SR
2023-01-28 LAB Meet #6 400m 1:03.15 17th · 3rd on team -0.035 PR SR
2023-01-28 LAB Meet #6 200m 27.93 21st · 6th on team -0.035 PR SR

2022 TF

Temperance Bedford (MI) · Grade 9

Date Meet Event Result Place Rating Difficulty PR/SR Flags
2022-05-26 Dundee Beck FRESHMAN Invitational 400m 1:03.94 1st · 1st on team -0.022 PR SR
2022-05-26 Dundee Beck FRESHMAN Invitational 200m 28.24 1st · 1st on team -0.022 PR SR
2022-05-20 MHSAA LP Region 04-1 @ Saline 400m 1:04.57 13th · 2nd on team -0.042 PR SR
2022-05-13 SEC-HS: Red Division Championship 400m 1:04.85 13th · 2nd on team -0.032 PR SR
2022-05-09 Eagle Invite (Clay) 400m 1:06.36 3rd · 2nd on team -0.039
2022-05-04 SEC-HS: Skyline at Bedford 200m 29.27 2nd · 1st on team -0.033 PR SR
2022-04-29 Nancy Erme Relays 400m 1:05.86 6th · 1st on team -0.040 PR SR
2022-04-26 SEC-HS: Bedford & Monroe at Dexter 400m 1:08.8 4th · 1st on team -0.036
2022-04-23 Warrior Classic 400m 1:06.45 9th · 2nd on team -0.029 PR SR
2022-04-12 SEC-HS: Lincoln & Pioneer at Bedford 400m 1:08.35 5th · 2nd on team -0.034
2022-04-12 SEC-HS: Lincoln & Pioneer at Bedford 200m 30.27 6th · 1st on team -0.034 SR
2022-04-05 Bedford @ Whitmer Dual 400m 1:08.27 2nd · 2nd on team -0.040 PR SR

2021 TF

Temperance Bedford (MI) · Grade 8

Date Meet Event Result Place Rating Difficulty PR/SR Flags
2021-05-10 Adrian MS @ Bedford MS shot 18'10.00 -0.033
2021-05-10 Adrian MS @ Bedford MS 200m 29.5 1st · 1st on team -0.033 PR SR
2021-05-06 Bedford JH @ Monroe MS shot 18-01.00 -0.032
2021-05-06 Bedford JH @ Monroe MS 70m 10.73 1st · 1st on team -0.032 ★PR SR
2021-05-06 Bedford JH @ Monroe MS 200m 30.78 1st · 1st on team -0.032
2021-05-03 Lincoln MS vs Bedford MS shot 18-08.00 -0.032
2021-05-03 Lincoln MS vs Bedford MS 200m 29.95 1st · 1st on team -0.032 PR SR
2021-04-29 Dexter MS @ Bedford MS shot 18'06.00 -0.033
2021-04-29 Dexter MS @ Bedford MS 200m 31.04 3rd · 2nd on team -0.033 PR SR
2021-04-22 Tecumseh Meet 400m 1:12.34 1st · 1st on team -0.026 PR SR
2021-04-19 SEC-MS: Bedford 200m 31.94 2nd · 2nd on team -0.033 SR

2019 TF

Temperance Bedford (MI) · Grade 6

Date Meet Event Result Place Rating Difficulty PR/SR Flags
2019-05-13 Lincoln MS @ Bedford MS 200m 31.5 3rd · 2nd on team -0.033 PR SR
2019-05-06 Ypsilanti MS @ Bedford 400m 1:22.69 7th · 5th on team -0.033
2019-04-22 SEC-MS: Adrian @ Bedford 400m 1:17.65 5th · 4th on team -0.033 PR SR